Time;durP1;ratioP1;P1;durP2;ratioP2;P2;SDS_P1;SDS_P2;PMS_P1;PMS_P2;Temp;Humidity;BMP_temperature;BMP_pressure;BME280_temperature;BME280_humidity;BME280_pressure;Samples;Min_cycle;Max_cycle;Signal;HPM_P1;HPM_P2
2022/09/10 00:01:59;;;;;;;8.98;4.13;;;;;;;21.97;66.49;99942.28;5049924;28;20407;-29
2022/09/10 00:04:26;;;;;;;6.47;4.07;;;;;;;21.71;67.04;99939.19;5067660;28;20122;-30
2022/09/10 00:06:52;;;;;;;7.55;4.75;;;;;;;21.89;67.19;99943.78;5049725;28;20036;-31
2022/09/10 00:09:17;;;;;;;8.57;4.65;;;;;;;21.90;66.82;99931.00;5067688;28;20393;-32
2022/09/10 00:11:45;;;;;;;7.38;4.78;;;;;;;21.68;66.56;99918.88;5067614;28;20021;-31
2022/09/10 00:14:22;;;;;;;7.53;5.50;;;;;;;21.66;67.44;99943.59;5067897;28;20039;-32
2022/09/10 00:16:48;;;;;;;7.13;4.90;;;;;;;21.54;67.96;99945.97;5067896;28;20102;-27
2022/09/10 00:19:14;;;;;;;8.55;5.05;;;;;;;21.49;68.32;99948.75;5067728;28;20105;-28
2022/09/10 00:21:40;;;;;;;5.93;4.63;;;;;;;21.59;68.27;99950.50;5049309;28;20528;-29
2022/09/10 00:24:05;;;;;;;5.93;4.60;;;;;;;21.57;67.13;99920.94;5067673;28;20029;-31
2022/09/10 00:26:36;;;;;;;5.97;4.45;;;;;;;21.72;67.27;99940.78;5067078;28;20036;-30
2022/09/10 00:29:03;;;;;;;7.53;4.78;;;;;;;21.78;66.89;99934.19;5049345;28;20086;-30
2022/09/10 00:31:30;;;;;;;6.65;4.80;;;;;;;21.79;66.68;99919.50;5049389;28;20035;-28
2022/09/10 00:33:58;;;;;;;8.57;4.75;;;;;;;21.56;66.90;99932.91;5049145;28;20051;-27
2022/09/10 00:36:26;;;;;;;7.70;4.80;;;;;;;21.45;67.14;99928.72;5049049;28;20041;-28
2022/09/10 00:38:53;;;;;;;8.63;4.30;;;;;;;21.58;67.99;99940.75;5066962;28;20176;-29
2022/09/10 00:41:22;;;;;;;6.15;4.38;;;;;;;21.46;68.47;99938.50;5048532;28;20024;-28
2022/09/10 00:43:59;;;;;;;6.43;4.50;;;;;;;21.35;68.34;99920.72;5049089;28;20075;-30
2022/09/10 00:46:46;;;;;;;8.07;5.15;;;;;;;21.78;67.16;99936.88;5067044;28;20017;-29
2022/09/10 00:49:27;;;;;;;6.68;4.82;;;;;;;21.85;67.13;99932.69;5066995;28;20070;-29
2022/09/10 00:51:53;;;;;;;6.72;5.15;;;;;;;21.98;65.64;99917.53;5067492;28;20578;-27
2022/09/10 00:54:23;;;;;;;8.23;4.82;;;;;;;21.88;66.03;99925.84;5049026;28;20040;-30
2022/09/10 00:56:52;;;;;;;6.50;4.82;;;;;;;21.81;66.61;99933.59;5067352;28;20028;-32
2022/09/10 00:59:20;;;;;;;7.25;4.45;;;;;;;21.91;66.37;99928.00;5048811;28;20035;-27
2022/09/10 01:01:46;;;;;;;6.57;4.05;;;;;;;21.68;67.24;99929.75;5048653;28;20032;-28
2022/09/10 01:04:12;;;;;;;6.45;3.92;;;;;;;21.38;67.14;99879.44;5045200;28;20064;-29
2022/09/10 01:06:40;;;;;;;7.80;4.05;;;;;;;21.56;68.20;99927.47;5045501;28;20512;-28
2022/09/10 01:09:08;;;;;;;7.18;3.67;;;;;;;21.65;67.93;99930.31;5046888;28;20044;-29
2022/09/10 01:11:33;;;;;;;5.28;3.63;;;;;;;21.74;67.83;99927.72;5045477;28;20031;-29
2022/09/10 01:14:37;;;;;;;5.15;3.42;;;;;;;21.62;67.86;99925.50;5046797;28;20037;-29
2022/09/10 01:17:15;;;;;;;6.90;3.80;;;;;;;21.50;68.31;99928.66;5045455;28;20025;-28
2022/09/10 01:20:21;;;;;;;6.00;3.75;;;;;;;21.23;68.61;99932.03;5046850;28;20068;-28
2022/09/10 01:23:04;;;;;;;6.35;3.97;;;;;;;21.16;68.75;99934.28;5023165;28;20063;-27
2022/09/10 01:25:54;;;;;;;7.35;3.95;;;;;;;21.15;69.95;99930.78;5046853;28;20068;-27
2022/09/10 01:29:00;;;;;;;8.07;5.10;;;;;;;20.97;70.67;99926.94;5046705;28;20033;-28
2022/09/10 01:31:58;;;;;;;7.72;4.82;;;;;;;20.85;70.16;99927.34;5046590;28;20052;-29
2022/09/10 01:34:33;;;;;;;7.57;6.28;;;;;;;20.70;70.55;99927.56;5046405;28;20060;-30
2022/09/10 01:37:06;;;;;;;8.68;5.82;;;;;;;20.65;70.90;99944.66;5045522;28;20048;-30
2022/09/10 01:39:33;;;;;;;9.20;5.75;;;;;;;20.60;70.46;99919.56;5047214;28;20021;-28
2022/09/10 01:41:59;;;;;;;8.98;6.70;;;;;;;20.21;71.20;99932.13;5046632;28;20028;-32
2022/09/10 01:44:47;;;;;;;11.95;7.03;;;;;;;20.37;71.62;99937.38;5046249;28;20119;-28
2022/09/10 01:47:27;;;;;;;10.00;6.45;;;;;;;20.22;72.27;99949.16;5045153;28;20033;-28
2022/09/10 01:50:08;;;;;;;9.20;6.70;;;;;;;20.49;72.50;99959.44;5044891;28;20037;-28
2022/09/10 01:52:51;;;;;;;8.25;6.10;;;;;;;20.64;71.83;99944.97;5046770;28;20033;-29
2022/09/10 01:55:46;;;;;;;8.98;6.53;;;;;;;20.57;72.11;99939.84;5049315;28;20060;-27
2022/09/10 01:58:20;;;;;;;9.25;7.05;;;;;;;20.74;71.63;99939.44;5048977;28;20552;-27
2022/09/10 02:00:55;;;;;;;8.73;5.90;;;;;;;21.03;69.77;99944.75;5048548;28;20029;-28
2022/09/10 02:03:23;;;;;;;10.52;5.90;;;;;;;20.74;70.92;99923.19;5052730;28;20037;-30
2022/09/10 02:05:52;;;;;;;9.18;5.60;;;;;;;20.82;70.89;99935.25;5052020;28;20029;-32
2022/09/10 02:08:22;;;;;;;8.70;6.63;;;;;;;20.75;71.18;99935.63;5051781;28;20090;-28
2022/09/10 02:10:48;;;;;;;7.93;5.85;;;;;;;20.89;70.54;99930.28;5051960;28;20024;-29
2022/09/10 02:13:14;;;;;;;8.48;5.80;;;;;;;20.77;70.45;99938.03;5052070;28;20119;-28
2022/09/10 02:15:39;;;;;;;8.23;6.10;;;;;;;20.86;70.61;99941.72;5070216;28;20510;-28
2022/09/10 02:18:05;;;;;;;7.95;5.70;;;;;;;20.73;70.22;99926.97;5069970;28;20056;-30
2022/09/10 02:20:31;;;;;;;7.53;6.00;;;;;;;20.82;70.59;99930.66;5069687;28;20043;-29
2022/09/10 02:22:58;;;;;;;9.93;6.40;;;;;;;20.99;69.22;99934.78;5069622;28;20028;-28
2022/09/10 02:25:27;;;;;;;7.57;5.97;;;;;;;21.19;68.90;99934.50;5051553;28;20043;-28
2022/09/10 02:27:53;;;;;;;9.75;6.18;;;;;;;21.25;68.65;99933.34;5069691;28;20123;-28
2022/09/10 02:30:19;;;;;;;7.95;6.15;;;;;;;20.95;69.32;99922.91;5069733;28;20037;-32
2022/09/10 02:32:44;;;;;;;10.45;6.75;;;;;;;20.73;70.18;99934.28;5070065;28;20039;-30
2022/09/10 02:35:10;;;;;;;13.43;6.78;;;;;;;20.47;70.13;99938.09;5069552;28;20125;-29
2022/09/10 02:37:36;;;;;;;12.32;6.78;;;;;;;20.33;70.84;99925.50;5069488;28;20419;-28
2022/09/10 02:40:02;;;;;;;12.07;8.02;;;;;;;20.36;72.11;99938.47;5051461;28;20465;-28
2022/09/10 02:42:27;;;;;;;9.52;7.20;;;;;;;21.01;70.09;99933.38;5051378;28;20453;-35
2022/09/10 02:44:53;;;;;;;10.50;7.57;;;;;;;21.00;70.17;99945.34;5069372;28;20024;-30
2022/09/10 02:47:18;;;;;;;8.85;6.53;;;;;;;20.83;70.29;99932.25;5069794;28;20470;-35
2022/09/10 02:49:44;;;;;;;9.60;6.88;;;;;;;20.84;70.78;99943.91;5069489;28;20805;-28
2022/09/10 02:52:11;;;;;;;9.77;7.55;;;;;;;20.92;70.64;99923.47;5069267;28;20024;-29
2022/09/10 02:54:37;;;;;;;10.07;8.00;;;;;;;20.77;70.89;99922.59;5069157;28;20036;-32
2022/09/10 02:57:02;;;;;;;10.25;7.13;;;;;;;20.88;70.76;99923.25;5051079;28;20105;-28
2022/09/10 02:59:28;;;;;;;11.82;8.02;;;;;;;20.79;70.96;99942.06;5069263;28;20592;-28
2022/09/10 03:01:54;;;;;;;9.30;7.28;;;;;;;20.56;72.02;99940.16;5050919;28;20090;-32
2022/09/10 03:04:19;;;;;;;10.75;7.93;;;;;;;20.47;72.55;99946.22;5067940;28;20578;-35
2022/09/10 03:06:48;;;;;;;9.85;7.60;;;;;;;20.76;70.70;99948.09;5050623;28;20093;-29
2022/09/10 03:09:13;;;;;;;10.18;8.07;;;;;;;20.52;71.50;99941.84;5069167;28;20476;-28
2022/09/10 03:11:39;;;;;;;9.68;8.50;;;;;;;20.17;72.29;99890.47;5068950;28;20082;-31
2022/09/10 03:14:08;;;;;;;12.02;8.23;;;;;;;21.20;69.67;99925.25;5068917;28;20484;-27
2022/09/10 03:16:34;;;;;;;11.43;8.75;;;;;;;21.07;69.24;99928.72;5050708;28;20653;-28
2022/09/10 03:18:59;;;;;;;11.60;8.68;;;;;;;20.64;70.18;99929.53;5050593;28;20083;-28
2022/09/10 03:21:25;;;;;;;13.75;9.07;;;;;;;20.42;71.37;99932.72;5068789;28;20032;-30
2022/09/10 03:23:52;;;;;;;11.93;8.82;;;;;;;20.20;71.40;99943.22;5068892;28;20464;-30
2022/09/10 03:26:19;;;;;;;11.60;9.23;;;;;;;20.02;72.19;99939.34;5050749;28;20035;-28
2022/09/10 03:28:46;;;;;;;12.80;9.53;;;;;;;19.76;72.10;99919.84;5050560;28;20488;-29
2022/09/10 03:31:15;;;;;;;13.55;9.85;;;;;;;19.97;73.99;99936.69;5050245;28;20029;-30
2022/09/10 03:33:41;;;;;;;15.50;9.50;;;;;;;20.01;72.68;99945.84;5050387;28;20055;-30
2022/09/10 03:36:08;;;;;;;16.63;10.13;;;;;;;19.95;72.47;99950.50;5050776;28;20040;-31
2022/09/10 03:38:34;;;;;;;13.75;9.77;;;;;;;19.91;73.63;99952.16;5068119;28;20039;-28
2022/09/10 03:41:01;;;;;;;14.18;9.85;;;;;;;19.79;73.42;99954.41;5068284;28;20045;-31
2022/09/10 03:43:28;;;;;;;13.98;9.23;;;;;;;20.14;73.87;99950.59;5050061;28;20047;-28
2022/09/10 03:45:54;;;;;;;14.52;9.63;;;;;;;20.11;73.16;99940.34;5050070;28;20037;-28
2022/09/10 03:48:20;;;;;;;10.82;8.60;;;;;;;20.58;71.21;99933.38;5068205;28;20031;-30
2022/09/10 03:50:46;;;;;;;15.20;8.88;;;;;;;20.80;70.72;99954.53;5068208;28;20036;-28
2022/09/10 03:53:13;;;;;;;15.43;9.05;;;;;;;20.03;72.71;99925.53;5050247;28;20032;-29
2022/09/10 03:55:41;;;;;;;11.05;8.40;;;;;;;20.38;71.68;99941.72;5049851;28;20038;-29
2022/09/10 03:58:07;;;;;;;10.32;8.85;;;;;;;20.28;71.51;99931.78;5067944;28;20078;-27
2022/09/10 04:00:33;;;;;;;12.00;8.90;;;;;;;20.40;71.85;99945.72;5067518;28;20032;-28
2022/09/10 04:02:59;;;;;;;11.88;9.15;;;;;;;20.26;72.10;99942.09;5049560;28;20038;-32
2022/09/10 04:05:26;;;;;;;13.95;9.38;;;;;;;20.07;71.97;99953.63;5067606;28;20056;-30
2022/09/10 04:07:53;;;;;;;13.00;9.55;;;;;;;19.84;73.23;99946.28;5067750;28;20027;-30
2022/09/10 04:10:20;;;;;;;13.10;8.75;;;;;;;20.27;72.43;99958.06;5067915;28;20113;-28
2022/09/10 04:12:47;;;;;;;12.05;9.38;;;;;;;20.22;72.80;99960.00;5049520;28;20021;-28
2022/09/10 04:15:13;;;;;;;15.80;9.60;;;;;;;20.16;72.41;99947.59;5067622;28;20113;-32
2022/09/10 04:17:39;;;;;;;14.32;9.73;;;;;;;20.24;71.80;99946.97;5049255;28;20070;-30
2022/09/10 04:20:05;;;;;;;12.55;9.00;;;;;;;20.38;71.45;99936.28;5067518;28;20037;-29
2022/09/10 04:22:30;;;;;;;17.23;9.63;;;;;;;20.27;71.54;99920.16;5049207;28;20498;-31
2022/09/10 04:24:56;;;;;;;13.95;9.50;;;;;;;20.17;72.45;99930.28;5067408;28;20028;-28
2022/09/10 04:27:21;;;;;;;20.45;10.57;;;;;;;20.09;72.48;99956.06;5049256;28;20511;-28
2022/09/10 04:29:47;;;;;;;14.65;9.50;;;;;;;20.05;72.68;99958.53;5067295;28;20047;-31
2022/09/10 04:32:12;;;;;;;12.65;9.35;;;;;;;20.43;71.17;99941.63;5067294;28;20099;-27
2022/09/10 04:34:38;;;;;;;14.15;9.95;;;;;;;20.14;72.60;99947.09;5067450;28;20032;-28
2022/09/10 04:37:04;;;;;;;15.50;9.65;;;;;;;20.26;72.73;99950.22;5067498;28;20028;-32
2022/09/10 04:39:29;;;;;;;14.70;9.88;;;;;;;20.30;72.02;99945.84;5067100;28;20036;-27
2022/09/10 04:41:55;;;;;;;16.30;9.70;;;;;;;20.25;72.22;99932.38;5067082;28;20451;-28
2022/09/10 04:44:20;;;;;;;18.67;9.90;;;;;;;20.48;71.14;99947.81;5066669;28;20724;-31
2022/09/10 04:46:46;;;;;;;12.23;9.18;;;;;;;20.47;70.92;99934.53;5066875;28;20475;-29
2022/09/10 04:49:12;;;;;;;13.63;9.85;;;;;;;20.52;70.55;99952.66;5067261;28;20025;-29
2022/09/10 04:51:38;;;;;;;22.90;11.35;;;;;;;20.56;71.09;99937.44;5048981;28;20024;-29
2022/09/10 04:54:03;;;;;;;14.00;9.38;;;;;;;20.42;71.54;99942.75;5067457;28;20064;-28
2022/09/10 04:56:29;;;;;;;14.50;10.13;;;;;;;20.50;70.54;99927.78;5067149;28;20044;-28
2022/09/10 04:58:54;;;;;;;17.88;11.27;;;;;;;20.87;69.96;99954.97;5067079;28;20037;-28
2022/09/10 05:01:20;;;;;;;15.75;11.20;;;;;;;20.93;70.03;99957.63;5048465;28;20060;-28
2022/09/10 05:03:45;;;;;;;19.05;11.23;;;;;;;21.03;68.62;99942.03;5066420;28;20117;-28
2022/09/10 05:06:11;;;;;;;20.15;10.70;;;;;;;21.15;68.51;99963.31;5066789;28;20024;-28
2022/09/10 05:08:36;;;;;;;13.10;9.85;;;;;;;21.10;68.68;99955.22;5066606;28;20082;-28
2022/09/10 05:11:02;;;;;;;17.23;10.20;;;;;;;21.04;68.47;99953.69;5066891;28;20090;-31
2022/09/10 05:13:29;;;;;;;17.98;10.65;;;;;;;20.98;69.42;99957.56;5066728;28;20536;-30
2022/09/10 05:15:56;;;;;;;;;;;;;;;20.82;69.41;99944.22;5049010;28;20028;-28
2022/09/10 05:18:22;;;;;;;21.00;10.13;;;;;;;20.96;69.61;99954.31;5048518;28;19955;-29
2022/09/10 05:20:48;;;;;;;21.60;11.52;;;;;;;20.72;70.30;99936.22;5066967;28;20287;-28
2022/09/10 05:23:13;;;;;;;11.88;9.35;;;;;;;20.97;69.43;99950.53;5066601;28;20036;-29
2022/09/10 05:25:38;;;;;;;16.35;8.63;;;;;;;20.92;69.82;99950.59;5066617;28;20036;-30
2022/09/10 05:28:04;;;;;;;11.80;9.00;;;;;;;20.71;70.52;99942.72;5047738;28;20067;-29
2022/09/10 05:30:31;;;;;;;26.90;9.40;;;;;;;20.90;70.39;99948.16;5066268;28;20113;-29
2022/09/10 05:32:59;;;;;;;12.38;8.23;;;;;;;21.35;69.21;99945.13;5048560;28;20412;-31
2022/09/10 05:35:25;;;;;;;19.55;8.15;;;;;;;21.13;69.79;99935.69;5048461;28;20119;-30
2022/09/10 05:37:51;;;;;;;11.30;7.05;;;;;;;21.20;69.67;99949.66;5048442;28;20119;-28
2022/09/10 05:40:16;;;;;;;11.93;7.43;;;;;;;21.21;69.89;99929.59;5066471;28;20021;-30
2022/09/10 05:42:42;;;;;;;8.73;7.13;;;;;;;21.23;71.01;99930.13;5066365;28;20027;-28
2022/09/10 05:45:09;;;;;;;11.10;7.55;;;;;;;21.50;69.59;99928.66;5048047;28;20055;-27
2022/09/10 05:47:35;;;;;;;11.23;7.25;;;;;;;21.46;70.90;99930.34;5048694;28;20052;-29
2022/09/10 05:50:00;;;;;;;54.03;34.97;;;;;;;21.76;69.61;99941.81;5048189;28;20033;-30
2022/09/10 05:52:26;;;;;;;20.42;13.85;;;;;;;21.91;69.51;99947.00;5048193;28;20808;-28
2022/09/10 05:54:53;;;;;;;132.50;77.00;;;;;;;21.88;70.07;99928.56;5066321;28;20028;-33
2022/09/10 05:57:18;;;;;;;104.07;61.08;;;;;;;22.15;69.05;99936.00;5048139;28;20074;-29
2022/09/10 05:59:45;;;;;;;22.95;15.88;;;;;;;22.45;67.72;99945.53;5048049;28;20032;-31
2022/09/10 06:02:18;;;;;;;72.55;46.22;;;;;;;22.66;68.53;99948.63;5047768;28;20172;-29
2022/09/10 06:04:43;;;;;;;24.35;15.07;;;;;;;22.53;68.14;99943.19;5047650;28;20090;-28
2022/09/10 06:07:09;;;;;;;10.98;8.70;;;;;;;22.82;68.55;99949.16;5066053;28;20020;-29
2022/09/10 06:09:35;;;;;;;21.15;14.18;;;;;;;23.04;66.55;99942.97;5048060;28;20032;-30
2022/09/10 06:12:01;;;;;;;18.33;12.30;;;;;;;22.93;66.63;99919.03;5066124;28;20032;-30
2022/09/10 06:14:26;;;;;;;18.23;11.20;;;;;;;23.07;67.40;99930.72;5066042;28;20048;-30
2022/09/10 06:16:53;;;;;;;12.30;7.43;;;;;;;23.06;68.19;99923.63;5066221;28;20021;-30
2022/09/10 06:19:20;;;;;;;18.33;12.70;;;;;;;23.07;67.80;99930.72;5066319;28;20116;-29
2022/09/10 06:21:48;;;;;;;11.30;8.63;;;;;;;23.18;65.99;99942.94;5048051;28;20059;-29
2022/09/10 06:24:13;;;;;;;10.23;7.47;;;;;;;23.17;66.72;99933.19;5047664;28;20152;-30
2022/09/10 06:26:39;;;;;;;15.50;9.27;;;;;;;23.46;64.91;99951.84;5066154;28;20079;-28
2022/09/10 06:29:04;;;;;;;8.38;5.68;;;;;;;23.50;65.42;99949.31;5047833;28;20040;-30
2022/09/10 06:31:30;;;;;;;9.07;6.00;;;;;;;23.69;65.29;99967.41;5065997;28;20060;-30
2022/09/10 06:33:55;;;;;;;13.93;7.72;;;;;;;24.00;63.19;99968.25;5065805;28;20028;-31
2022/09/10 06:36:21;;;;;;;9.60;6.05;;;;;;;24.14;62.25;99967.41;5065723;28;20035;-29
2022/09/10 06:38:48;;;;;;;8.57;6.68;;;;;;;24.03;62.79;99959.50;5047993;28;20036;-34
2022/09/10 06:41:15;;;;;;;9.98;6.00;;;;;;;24.01;64.08;99937.19;5069443;28;20098;-30
2022/09/10 06:43:41;;;;;;;8.52;6.13;;;;;;;23.62;64.72;99930.53;5069207;28;20483;-29
2022/09/10 06:46:09;;;;;;;11.93;6.18;;;;;;;23.72;64.40;99934.91;5069385;28;20459;-35
2022/09/10 06:48:39;;;;;;;10.27;6.07;;;;;;;24.03;63.87;99962.22;5051229;28;20048;-28
2022/09/10 06:51:07;;;;;;;8.43;5.90;;;;;;;24.20;62.75;99955.25;5051199;28;20025;-28
2022/09/10 06:53:32;;;;;;;;;;;;;;;23.85;64.18;99944.94;5069899;28;20119;-29
2022/09/10 06:55:59;;;;;;;9.23;6.60;;;;;;;23.81;64.27;99938.50;5068792;28;20026;-29
2022/09/10 06:58:27;;;;;;;9.70;6.75;;;;;;;24.08;64.06;99958.53;5069273;28;20029;-28
2022/09/10 07:00:53;;;;;;;10.57;5.85;;;;;;;24.22;61.56;99942.13;5050567;28;20041;-29
2022/09/10 07:03:20;;;;;;;8.93;5.30;;;;;;;24.21;61.66;99959.56;5050766;28;20025;-34
2022/09/10 07:05:46;;;;;;;8.10;5.80;;;;;;;24.29;61.98;99947.91;5050894;28;20031;-30
2022/09/10 07:08:16;;;;;;;7.85;5.18;;;;;;;24.35;62.41;99935.75;5050659;28;20055;-29
2022/09/10 07:10:43;;;;;;;7.38;6.18;;;;;;;24.59;61.80;99938.13;5068495;28;20035;-29
2022/09/10 07:13:11;;;;;;;9.88;6.00;;;;;;;24.72;61.64;99933.66;5069149;28;20503;-32
2022/09/10 07:15:42;;;;;;;;;;;;;;;24.82;60.79;99952.44;5051317;28;20047;-34
2022/09/10 07:18:13;;;;;;;10.73;6.57;;;;;;;25.02;59.93;99947.53;5050599;28;19966;-29
2022/09/10 07:20:39;;;;;;;7.47;5.78;;;;;;;24.96;60.63;99938.69;5068692;28;20016;-28
2022/09/10 07:23:04;;;;;;;7.82;5.85;;;;;;;24.97;60.37;99923.16;5050222;28;20115;-27
2022/09/10 07:25:32;;;;;;;10.27;6.32;;;;;;;24.66;61.08;99934.91;5068884;28;20116;-27
2022/09/10 07:28:00;;;;;;;9.63;6.00;;;;;;;24.58;61.85;99932.97;5068519;28;20032;-29
2022/09/10 07:30:27;;;;;;;7.45;6.00;;;;;;;24.95;60.61;99942.56;5050393;28;20757;-29
2022/09/10 07:32:53;;;;;;;9.48;6.30;;;;;;;25.28;59.57;99938.63;5050607;28;20123;-29
2022/09/10 07:35:18;;;;;;;9.13;5.70;;;;;;;25.52;58.96;99944.38;5068687;28;20162;-28
2022/09/10 07:37:44;;;;;;;8.77;5.78;;;;;;;25.52;58.68;99922.56;5068158;28;20097;-29
2022/09/10 07:40:10;;;;;;;8.70;6.00;;;;;;;26.00;57.97;99943.38;5050408;28;20177;-31
2022/09/10 07:42:36;;;;;;;10.52;6.20;;;;;;;26.31;57.51;99946.97;5068211;28;20025;-32
2022/09/10 07:45:04;;;;;;;9.18;5.93;;;;;;;26.36;55.88;99933.16;5050163;28;20587;-31
2022/09/10 07:47:30;;;;;;;7.50;5.60;;;;;;;26.40;56.33;99956.75;5050306;28;20111;-31
2022/09/10 07:49:56;;;;;;;9.55;6.35;;;;;;;25.98;57.00;99940.16;5049494;28;20029;-28
2022/09/10 07:52:21;;;;;;;8.15;6.05;;;;;;;25.97;57.55;99949.50;5067740;28;20033;-31
2022/09/10 07:54:47;;;;;;;7.43;5.72;;;;;;;26.18;55.98;99981.59;5067996;28;20082;-29
2022/09/10 07:57:12;;;;;;;9.15;5.75;;;;;;;26.14;55.90;99964.25;5068139;28;20036;-29
2022/09/10 07:59:37;;;;;;;10.57;7.32;;;;;;;25.97;57.25;99976.81;5067828;28;20043;-28
2022/09/10 08:02:05;;;;;;;10.35;5.80;;;;;;;25.83;56.46;99966.03;5067901;28;20052;-28
2022/09/10 08:04:31;;;;;;;10.70;5.97;;;;;;;26.08;55.48;99973.75;5049197;28;20415;-28
2022/09/10 08:06:57;;;;;;;8.05;5.93;;;;;;;26.33;53.38;99985.72;5049407;28;20106;-32
2022/09/10 08:09:24;;;;;;;7.38;6.05;;;;;;;26.46;53.79;99977.31;5067953;28;20487;-33
2022/09/10 08:11:50;;;;;;;8.70;5.88;;;;;;;26.74;53.26;99965.94;5068144;28;20025;-31
2022/09/10 08:14:15;;;;;;;7.57;5.60;;;;;;;26.75;52.19;99955.81;5049903;28;20033;-34
2022/09/10 08:16:41;;;;;;;9.73;5.47;;;;;;;26.94;52.54;99956.19;5067360;28;20030;-31
2022/09/10 08:19:08;;;;;;;6.82;5.82;;;;;;;27.02;51.41;99921.69;5067603;28;20044;-38
2022/09/10 08:21:35;;;;;;;9.30;5.50;;;;;;;27.48;50.63;99911.66;5067427;28;20812;-30
2022/09/10 08:24:01;;;;;;;8.63;5.75;;;;;;;27.87;50.16;99914.22;5067652;28;20033;-28
2022/09/10 08:26:27;;;;;;;9.23;5.88;;;;;;;27.78;49.05;99914.28;5066963;28;20024;-28
2022/09/10 08:28:55;;;;;;;9.45;5.45;;;;;;;27.60;51.19;99892.56;5067494;28;20032;-31
2022/09/10 08:31:21;;;;;;;6.55;5.43;;;;;;;27.47;50.40;99903.81;5049179;28;20028;-28
2022/09/10 08:33:49;;;;;;;9.20;6.05;;;;;;;27.85;48.84;99920.81;5049205;28;20127;-29
2022/09/10 08:36:15;;;;;;;8.32;5.90;;;;;;;27.97;49.18;99932.97;5049490;28;20028;-29
2022/09/10 08:38:42;;;;;;;8.77;5.82;;;;;;;28.32;48.66;99938.88;5048863;28;20784;-29
2022/09/10 08:41:24;;;;;;;8.73;5.85;;;;;;;28.31;47.10;99937.25;5049285;28;20542;-29
2022/09/10 08:43:49;;;;;;;10.32;5.70;;;;;;;27.90;46.63;99930.00;5048996;28;20416;-30
2022/09/10 08:46:21;;;;;;;9.73;5.80;;;;;;;27.59;48.61;99934.78;5067004;28;20020;-32
2022/09/10 08:48:53;;;;;;;10.07;5.97;;;;;;;27.26;48.98;99921.06;5049135;28;20036;-29
2022/09/10 08:51:26;;;;;;;7.32;6.00;;;;;;;27.79;49.16;99926.88;5067230;28;20024;-29
2022/09/10 08:54:12;;;;;;;10.23;6.80;;;;;;;28.36;49.43;99928.81;5066903;28;20064;-31
2022/09/10 08:56:39;;;;;;;9.40;6.43;;;;;;;28.51;47.49;99934.78;5066207;28;20028;-30
2022/09/10 08:59:21;;;;;;;9.13;6.32;;;;;;;28.70;47.45;99926.78;5047708;28;20033;-28
2022/09/10 09:02:10;;;;;;;6.55;5.57;;;;;;;28.96;46.48;99907.19;5047895;28;20464;-29
2022/09/10 09:04:45;;;;;;;15.75;7.15;;;;;;;28.98;46.85;99915.06;5054664;28;20114;-28
2022/09/10 09:07:14;;;;;;;10.48;6.65;;;;;;;29.19;45.06;99899.25;5081574;28;20067;-36
2022/09/10 09:09:39;;;;;;;11.88;6.32;;;;;;;29.17;46.40;99893.31;5066545;28;20051;-28
2022/09/10 09:12:28;;;;;;;8.70;6.15;;;;;;;29.38;45.49;99906.88;5066261;28;20028;-29
2022/09/10 09:15:12;;;;;;;15.32;7.18;;;;;;;29.39;45.85;99899.41;5048047;28;20040;-31
2022/09/10 09:17:44;;;;;;;9.07;6.15;;;;;;;29.52;46.76;99906.44;5066005;28;20040;-29
2022/09/10 09:20:42;;;;;;;11.32;6.47;;;;;;;29.92;44.17;99902.81;5048444;28;20720;-28
2022/09/10 09:23:10;;;;;;;10.88;7.07;;;;;;;29.77;45.32;99892.59;5047789;28;20424;-28
2022/09/10 09:25:52;;;;;;;12.40;6.50;;;;;;;29.65;44.09;99866.78;5065950;28;20123;-28
2022/09/10 09:28:43;;;;;;;13.93;6.60;;;;;;;30.01;45.17;99873.19;5081785;28;20108;-28
2022/09/10 09:31:31;;;;;;;9.15;6.50;;;;;;;30.17;42.86;99867.69;5066290;28;20031;-28
2022/09/10 09:34:13;;;;;;;10.15;6.75;;;;;;;30.02;44.45;99863.00;5047993;28;20518;-29
2022/09/10 09:36:44;;;;;;;11.05;7.15;;;;;;;29.91;43.47;99848.97;5047842;28;20117;-31
2022/09/10 09:39:18;;;;;;;10.57;6.78;;;;;;;30.22;44.70;99852.91;5081648;28;20024;-29
2022/09/10 09:42:05;;;;;;;8.23;6.43;;;;;;;29.86;43.06;99849.25;5048068;28;20039;-28
2022/09/10 09:44:45;;;;;;;7.28;6.38;;;;;;;30.21;44.07;99837.53;5065359;28;20036;-31
2022/09/10 09:47:11;;;;;;;11.05;7.00;;;;;;;30.60;44.17;99843.16;5066013;28;20043;-31
2022/09/10 09:49:36;;;;;;;9.43;6.97;;;;;;;30.82;41.69;99847.97;5065818;28;20020;-31
2022/09/10 09:52:15;;;;;;;9.15;6.40;;;;;;;30.67;40.61;99842.50;5066545;28;20024;-34
2022/09/10 09:54:45;;;;;;;8.23;6.43;;;;;;;30.46;41.31;99829.09;5066717;28;20111;-31
2022/09/10 09:57:18;;;;;;;11.82;6.53;;;;;;;30.70;40.97;99798.56;5082110;28;20205;-31
2022/09/10 09:59:44;;;;;;;8.57;6.88;;;;;;;30.70;39.39;99828.84;5066989;28;20067;-36
2022/09/10 10:02:14;;;;;;;11.23;7.47;;;;;;;30.15;42.40;99828.75;5048568;28;20068;-28
2022/09/10 10:05:06;;;;;;;10.45;6.95;;;;;;;30.35;41.99;99823.34;5048172;28;20067;-36
2022/09/10 10:07:35;;;;;;;8.25;6.30;;;;;;;30.51;40.31;99823.31;5066515;28;20751;-30
2022/09/10 10:10:04;;;;;;;8.10;6.63;;;;;;;30.44;41.96;99794.50;5067010;28;20038;-34
2022/09/10 10:12:30;;;;;;;10.15;7.70;;;;;;;30.52;40.65;99802.88;5048534;28;20025;-32
2022/09/10 10:15:01;;;;;;;8.60;7.30;;;;;;;31.17;41.08;99805.03;5035887;28;20033;-29
2022/09/10 10:17:34;;;;;;;11.13;7.10;;;;;;;31.54;39.64;99797.06;5070577;28;20093;-29
2022/09/10 10:20:06;;;;;;;12.85;7.30;;;;;;;31.28;40.47;99758.38;5052216;28;20035;-32
2022/09/10 10:22:31;;;;;;;10.85;7.32;;;;;;;31.70;40.04;99776.84;5052244;28;20101;-29
2022/09/10 10:24:59;;;;;;;10.15;7.32;;;;;;;31.53;39.65;99784.47;5070221;28;20033;-32
2022/09/10 10:27:25;;;;;;;10.68;6.80;;;;;;;31.79;41.26;99786.47;5085804;28;20106;-33
2022/09/10 10:30:15;;;;;;;11.50;6.88;;;;;;;31.76;40.31;99772.63;5052239;28;20028;-31
2022/09/10 10:32:57;;;;;;;8.30;6.90;;;;;;;31.75;38.94;99774.59;5069893;28;20036;-37
2022/09/10 10:35:34;;;;;;;9.82;6.55;;;;;;;32.02;39.18;99766.38;5052248;28;20029;-32
2022/09/10 10:38:05;;;;;;;10.18;7.07;;;;;;;31.81;38.38;99761.25;5070218;28;20035;-34
2022/09/10 10:41:02;;;;;;;10.07;6.40;;;;;;;31.72;37.87;99747.75;5051615;28;20203;-36
2022/09/10 10:43:36;;;;;;;;;;;;;;;32.13;38.04;99748.00;5070334;28;20044;-29
2022/09/10 10:46:04;;;;;;;8.70;6.57;;;;;;;32.20;38.28;99723.28;5070108;28;19916;-30
2022/09/10 10:49:01;;;;;;;9.13;6.88;;;;;;;32.89;39.35;99741.47;5051520;28;20052;-28
2022/09/10 10:51:47;;;;;;;12.23;7.03;;;;;;;33.06;36.95;99748.38;5051425;28;20094;-31
2022/09/10 10:54:41;;;;;;;10.68;6.35;;;;;;;33.00;36.24;99739.63;5069731;28;20034;-33
2022/09/10 10:57:30;;;;;;;9.18;5.82;;;;;;;32.59;36.92;99736.00;5069743;28;20064;-30
2022/09/10 11:00:03;;;;;;;11.32;6.45;;;;;;;33.04;37.34;99736.91;5051710;28;20130;-28
2022/09/10 11:02:35;;;;;;;8.32;6.05;;;;;;;33.23;35.62;99733.94;5051483;28;20028;-29
2022/09/10 11:05:15;;;;;;;12.23;6.93;;;;;;;33.54;35.20;99726.31;5051336;28;20607;-29
2022/09/10 11:07:42;;;;;;;8.68;6.65;;;;;;;33.40;34.97;99720.66;5084897;28;20078;-28
2022/09/10 11:10:11;;;;;;;10.82;6.60;;;;;;;33.67;36.17;99717.75;5051096;28;20032;-30
2022/09/10 11:12:54;;;;;;;9.95;6.40;;;;;;;33.95;35.05;99712.41;5069492;28;20037;-29
2022/09/10 11:15:42;;;;;;;7.00;6.10;;;;;;;34.03;38.60;99705.72;5050113;28;20047;-29
2022/09/10 11:18:32;;;;;;;8.45;6.00;;;;;;;33.81;36.60;99713.09;5068236;28;20107;-29
2022/09/10 11:21:10;;;;;;;8.70;5.82;;;;;;;34.06;34.94;99717.19;5050201;28;20403;-36
2022/09/10 11:24:06;;;;;;;12.68;7.10;;;;;;;34.36;33.87;99709.47;5068259;28;20040;-32
2022/09/10 11:26:40;;;;;;;7.82;5.90;;;;;;;34.52;36.35;99700.84;5067500;28;20028;-30
2022/09/10 11:29:24;;;;;;;8.63;6.50;;;;;;;34.61;34.92;99697.69;5050140;28;20036;-31
2022/09/10 11:32:01;;;;;;;11.55;6.72;;;;;;;33.86;34.24;99709.19;5049886;28;20509;-29
2022/09/10 11:34:27;;;;;;;11.55;6.25;;;;;;;33.93;34.09;99697.38;5067753;28;20037;-36
2022/09/10 11:37:18;;;;;;;10.85;6.13;;;;;;;33.86;37.53;99681.53;5068070;28;20097;-33
2022/09/10 11:39:54;;;;;;;9.65;6.70;;;;;;;34.26;36.10;99682.53;5083468;28;20031;-29
2022/09/10 11:42:29;;;;;;;13.52;7.78;;;;;;;34.32;35.38;99685.72;5067746;28;20021;-30
2022/09/10 11:45:23;;;;;;;9.60;6.07;;;;;;;34.27;35.10;99678.59;5049831;28;20035;-29